sensor_id;sensor_type;location;lat;lon;timestamp;temperature;humidity
38938;DHT22;24727;51.974;20.868;2023-08-30T00:00:47;18.60;19.10
38938;DHT22;24727;51.974;20.868;2023-08-30T00:03:13;18.60;18.80
38938;DHT22;24727;51.974;20.868;2023-08-30T00:05:40;18.60;18.50
38938;DHT22;24727;51.974;20.868;2023-08-30T00:08:06;18.70;18.10
38938;DHT22;24727;51.974;20.868;2023-08-30T00:10:32;18.70;17.40
38938;DHT22;24727;51.974;20.868;2023-08-30T00:12:59;18.60;18.20
38938;DHT22;24727;51.974;20.868;2023-08-30T00:15:25;18.50;19.90
38938;DHT22;24727;51.974;20.868;2023-08-30T00:17:51;18.40;22.70
38938;DHT22;24727;51.974;20.868;2023-08-30T00:20:18;18.30;23.20
38938;DHT22;24727;51.974;20.868;2023-08-30T00:22:44;18.30;26.20
38938;DHT22;24727;51.974;20.868;2023-08-30T00:25:10;18.20;28.10
38938;DHT22;24727;51.974;20.868;2023-08-30T00:27:36;18.20;29.40
38938;DHT22;24727;51.974;20.868;2023-08-30T00:30:03;18.10;31.30
38938;DHT22;24727;51.974;20.868;2023-08-30T00:32:30;18.10;32.80
38938;DHT22;24727;51.974;20.868;2023-08-30T00:34:56;18.00;34.30
38938;DHT22;24727;51.974;20.868;2023-08-30T00:37:23;18.00;36.10
38938;DHT22;24727;51.974;20.868;2023-08-30T00:39:49;18.00;36.10
38938;DHT22;24727;51.974;20.868;2023-08-30T00:42:15;17.90;37.50
38938;DHT22;24727;51.974;20.868;2023-08-30T00:44:42;17.90;38.60
38938;DHT22;24727;51.974;20.868;2023-08-30T00:47:09;17.90;39.50
38938;DHT22;24727;51.974;20.868;2023-08-30T00:49:37;17.90;40.50
38938;DHT22;24727;51.974;20.868;2023-08-30T00:52:08;17.80;41.30
38938;DHT22;24727;51.974;20.868;2023-08-30T00:54:36;17.80;42.20
38938;DHT22;24727;51.974;20.868;2023-08-30T00:57:02;17.80;43.00
38938;DHT22;24727;51.974;20.868;2023-08-30T00:59:32;17.80;43.30
38938;DHT22;24727;51.974;20.868;2023-08-30T01:01:59;17.80;44.50
38938;DHT22;24727;51.974;20.868;2023-08-30T01:04:27;17.80;45.10
38938;DHT22;24727;51.974;20.868;2023-08-30T01:06:53;17.80;45.80
38938;DHT22;24727;51.974;20.868;2023-08-30T01:09:20;17.80;46.30
38938;DHT22;24727;51.974;20.868;2023-08-30T01:12:10;17.80;46.80
38938;DHT22;24727;51.974;20.868;2023-08-30T01:14:44;17.80;47.00
38938;DHT22;24727;51.974;20.868;2023-08-30T01:17:19;17.80;47.20
38938;DHT22;24727;51.974;20.868;2023-08-30T01:22:31;17.80;47.60
38938;DHT22;24727;51.974;20.868;2023-08-30T01:27:43;17.70;47.90
38938;DHT22;24727;51.974;20.868;2023-08-30T01:30:14;17.70;48.00
38938;DHT22;24727;51.974;20.868;2023-08-30T01:32:45;17.70;48.10
38938;DHT22;24727;51.974;20.868;2023-08-30T01:35:17;17.70;48.20
38938;DHT22;24727;51.974;20.868;2023-08-30T01:37:50;17.70;48.20
38938;DHT22;24727;51.974;20.868;2023-08-30T01:40:24;17.70;48.10
38938;DHT22;24727;51.974;20.868;2023-08-30T01:42:52;17.60;48.10
38938;DHT22;24727;51.974;20.868;2023-08-30T01:45:20;17.60;48.50
38938;DHT22;24727;51.974;20.868;2023-08-30T01:47:48;17.60;48.10
38938;DHT22;24727;51.974;20.868;2023-08-30T01:50:16;17.60;48.00
38938;DHT22;24727;51.974;20.868;2023-08-30T01:52:43;17.60;47.90
38938;DHT22;24727;51.974;20.868;2023-08-30T01:55:11;17.50;47.50
38938;DHT22;24727;51.974;20.868;2023-08-30T01:57:39;17.40;46.90
38938;DHT22;24727;51.974;20.868;2023-08-30T02:00:06;17.40;46.30
38938;DHT22;24727;51.974;20.868;2023-08-30T02:02:33;17.40;46.20
38938;DHT22;24727;51.974;20.868;2023-08-30T02:04:59;17.40;46.10
38938;DHT22;24727;51.974;20.868;2023-08-30T02:07:36;17.40;45.70
38938;DHT22;24727;51.974;20.868;2023-08-30T02:10:08;17.40;45.50
38938;DHT22;24727;51.974;20.868;2023-08-30T02:12:48;17.40;45.10
38938;DHT22;24727;51.974;20.868;2023-08-30T02:15:16;17.50;43.10
38938;DHT22;24727;51.974;20.868;2023-08-30T02:17:44;17.50;42.50
38938;DHT22;24727;51.974;20.868;2023-08-30T02:20:10;17.60;40.90
38938;DHT22;24727;51.974;20.868;2023-08-30T02:22:37;17.60;39.20
38938;DHT22;24727;51.974;20.868;2023-08-30T02:25:04;17.50;29.30
38938;DHT22;24727;51.974;20.868;2023-08-30T02:27:34;17.50;1.00
38938;DHT22;24727;51.974;20.868;2023-08-30T02:30:01;17.60;1.00
38938;DHT22;24727;51.974;20.868;2023-08-30T02:32:28;17.70;1.00
38938;DHT22;24727;51.974;20.868;2023-08-30T02:34:55;17.80;1.00
38938;DHT22;24727;51.974;20.868;2023-08-30T02:37:22;17.90;1.00
38938;DHT22;24727;51.974;20.868;2023-08-30T02:39:48;17.70;1.00
38938;DHT22;24727;51.974;20.868;2023-08-30T02:42:15;17.50;7.80
38938;DHT22;24727;51.974;20.868;2023-08-30T02:44:42;17.50;14.50
38938;DHT22;24727;51.974;20.868;2023-08-30T02:47:08;17.50;14.70
38938;DHT22;24727;51.974;20.868;2023-08-30T02:49:34;17.40;17.10
38938;DHT22;24727;51.974;20.868;2023-08-30T02:52:00;17.30;19.90
38938;DHT22;24727;51.974;20.868;2023-08-30T02:54:26;17.30;22.90
38938;DHT22;24727;51.974;20.868;2023-08-30T02:57:00;17.20;24.50
38938;DHT22;24727;51.974;20.868;2023-08-30T02:59:28;17.20;25.90
38938;DHT22;24727;51.974;20.868;2023-08-30T03:01:55;17.20;26.50
38938;DHT22;24727;51.974;20.868;2023-08-30T03:04:21;17.20;27.60
38938;DHT22;24727;51.974;20.868;2023-08-30T03:06:55;17.20;28.60
38938;DHT22;24727;51.974;20.868;2023-08-30T03:09:21;17.10;29.10
38938;DHT22;24727;51.974;20.868;2023-08-30T03:11:48;17.20;27.80
38938;DHT22;24727;51.974;20.868;2023-08-30T03:14:14;17.10;11.80
38938;DHT22;24727;51.974;20.868;2023-08-30T03:16:42;17.10;1.00
38938;DHT22;24727;51.974;20.868;2023-08-30T03:19:10;17.20;1.00
38938;DHT22;24727;51.974;20.868;2023-08-30T03:21:37;17.40;1.00
38938;DHT22;24727;51.974;20.868;2023-08-30T03:24:03;17.50;1.00
38938;DHT22;24727;51.974;20.868;2023-08-30T03:26:29;17.60;1.00
38938;DHT22;24727;51.974;20.868;2023-08-30T03:28:55;17.70;1.00
38938;DHT22;24727;51.974;20.868;2023-08-30T03:31:22;17.70;1.00
38938;DHT22;24727;51.974;20.868;2023-08-30T03:33:48;17.80;1.00
38938;DHT22;24727;51.974;20.868;2023-08-30T03:36:16;17.80;1.00
38938;DHT22;24727;51.974;20.868;2023-08-30T03:38:43;17.90;1.00
38938;DHT22;24727;51.974;20.868;2023-08-30T03:41:13;17.90;1.00
38938;DHT22;24727;51.974;20.868;2023-08-30T03:43:39;18.00;1.00
38938;DHT22;24727;51.974;20.868;2023-08-30T03:46:05;18.00;1.00
38938;DHT22;24727;51.974;20.868;2023-08-30T03:48:32;17.90;1.00
38938;DHT22;24727;51.974;20.868;2023-08-30T03:50:58;18.00;1.00
38938;DHT22;24727;51.974;20.868;2023-08-30T03:53:24;18.00;1.00
38938;DHT22;24727;51.974;20.868;2023-08-30T03:55:51;18.00;1.00
38938;DHT22;24727;51.974;20.868;2023-08-30T03:58:18;18.00;1.00
38938;DHT22;24727;51.974;20.868;2023-08-30T04:00:44;17.90;1.00
38938;DHT22;24727;51.974;20.868;2023-08-30T04:03:12;17.90;1.00
38938;DHT22;24727;51.974;20.868;2023-08-30T04:05:38;17.80;1.00
38938;DHT22;24727;51.974;20.868;2023-08-30T04:08:06;17.70;1.00
38938;DHT22;24727;51.974;20.868;2023-08-30T04:10:37;17.60;1.00
38938;DHT22;24727;51.974;20.868;2023-08-30T04:13:04;17.50;1.00
38938;DHT22;24727;51.974;20.868;2023-08-30T04:15:37;17.40;1.00
38938;DHT22;24727;51.974;20.868;2023-08-30T04:18:06;17.20;1.00
38938;DHT22;24727;51.974;20.868;2023-08-30T04:20:32;17.10;9.00
38938;DHT22;24727;51.974;20.868;2023-08-30T04:22:59;17.00;14.70
38938;DHT22;24727;51.974;20.868;2023-08-30T04:25:28;17.00;19.00
38938;DHT22;24727;51.974;20.868;2023-08-30T04:27:55;17.00;21.70
38938;DHT22;24727;51.974;20.868;2023-08-30T04:30:21;16.90;23.30
38938;DHT22;24727;51.974;20.868;2023-08-30T04:32:47;16.90;25.20
38938;DHT22;24727;51.974;20.868;2023-08-30T04:35:13;16.90;27.30
38938;DHT22;24727;51.974;20.868;2023-08-30T04:37:39;16.90;29.40
38938;DHT22;24727;51.974;20.868;2023-08-30T04:40:07;17.00;30.10
38938;DHT22;24727;51.974;20.868;2023-08-30T04:42:37;16.90;31.40
38938;DHT22;24727;51.974;20.868;2023-08-30T04:45:04;16.90;32.80
38938;DHT22;24727;51.974;20.868;2023-08-30T04:47:31;16.90;33.60
38938;DHT22;24727;51.974;20.868;2023-08-30T04:49:57;16.90;34.80
38938;DHT22;24727;51.974;20.868;2023-08-30T04:52:23;16.90;35.70
38938;DHT22;24727;51.974;20.868;2023-08-30T04:54:50;16.90;36.50
38938;DHT22;24727;51.974;20.868;2023-08-30T04:57:17;16.90;36.20
38938;DHT22;24727;51.974;20.868;2023-08-30T04:59:44;16.90;37.30
38938;DHT22;24727;51.974;20.868;2023-08-30T05:02:11;16.90;38.10
38938;DHT22;24727;51.974;20.868;2023-08-30T05:04:37;17.00;38.40
38938;DHT22;24727;51.974;20.868;2023-08-30T05:07:04;17.00;38.80
38938;DHT22;24727;51.974;20.868;2023-08-30T05:09:30;17.00;38.80
38938;DHT22;24727;51.974;20.868;2023-08-30T05:12:05;17.00;38.80
38938;DHT22;24727;51.974;20.868;2023-08-30T05:14:31;17.00;38.30
38938;DHT22;24727;51.974;20.868;2023-08-30T05:16:57;17.00;38.10
38938;DHT22;24727;51.974;20.868;2023-08-30T05:19:23;17.00;38.10
38938;DHT22;24727;51.974;20.868;2023-08-30T05:21:49;17.00;38.30
38938;DHT22;24727;51.974;20.868;2023-08-30T05:24:21;17.10;38.10
38938;DHT22;24727;51.974;20.868;2023-08-30T05:26:48;17.10;38.20
38938;DHT22;24727;51.974;20.868;2023-08-30T05:29:14;17.20;37.20
38938;DHT22;24727;51.974;20.868;2023-08-30T05:31:42;17.20;35.80
38938;DHT22;24727;51.974;20.868;2023-08-30T05:34:09;17.10;27.20
38938;DHT22;24727;51.974;20.868;2023-08-30T05:36:35;17.00;10.10
38938;DHT22;24727;51.974;20.868;2023-08-30T05:39:01;17.00;1.00
38938;DHT22;24727;51.974;20.868;2023-08-30T05:41:29;17.10;1.00
38938;DHT22;24727;51.974;20.868;2023-08-30T05:43:55;17.20;1.00
38938;DHT22;24727;51.974;20.868;2023-08-30T05:46:23;17.30;1.00
38938;DHT22;24727;51.974;20.868;2023-08-30T05:48:49;17.40;1.00
38938;DHT22;24727;51.974;20.868;2023-08-30T05:51:15;17.40;1.00
38938;DHT22;24727;51.974;20.868;2023-08-30T05:53:42;17.50;1.00
38938;DHT22;24727;51.974;20.868;2023-08-30T05:56:08;17.50;1.00
38938;DHT22;24727;51.974;20.868;2023-08-30T05:58:34;17.50;1.00
38938;DHT22;24727;51.974;20.868;2023-08-30T06:01:01;17.50;1.00
38938;DHT22;24727;51.974;20.868;2023-08-30T06:03:29;17.60;1.00
38938;DHT22;24727;51.974;20.868;2023-08-30T06:05:55;17.50;1.00
38938;DHT22;24727;51.974;20.868;2023-08-30T06:08:21;17.60;1.00
38938;DHT22;24727;51.974;20.868;2023-08-30T06:10:47;17.50;1.00
38938;DHT22;24727;51.974;20.868;2023-08-30T06:13:14;17.50;1.00
38938;DHT22;24727;51.974;20.868;2023-08-30T06:15:41;17.50;1.00
38938;DHT22;24727;51.974;20.868;2023-08-30T06:18:07;17.50;1.00
38938;DHT22;24727;51.974;20.868;2023-08-30T06:20:33;17.50;1.00
38938;DHT22;24727;51.974;20.868;2023-08-30T06:23:02;17.50;3.60
38938;DHT22;24727;51.974;20.868;2023-08-30T06:25:28;17.50;4.30
38938;DHT22;24727;51.974;20.868;2023-08-30T06:27:58;17.50;1.00
38938;DHT22;24727;51.974;20.868;2023-08-30T06:30:29;17.40;1.00
38938;DHT22;24727;51.974;20.868;2023-08-30T06:32:56;17.50;1.00
38938;DHT22;24727;51.974;20.868;2023-08-30T06:35:22;17.60;1.00
38938;DHT22;24727;51.974;20.868;2023-08-30T06:37:49;17.60;1.00
38938;DHT22;24727;51.974;20.868;2023-08-30T06:40:15;17.70;1.00
38938;DHT22;24727;51.974;20.868;2023-08-30T06:42:41;17.70;1.00
38938;DHT22;24727;51.974;20.868;2023-08-30T06:45:07;17.80;1.00
38938;DHT22;24727;51.974;20.868;2023-08-30T06:47:34;17.80;1.00
38938;DHT22;24727;51.974;20.868;2023-08-30T06:50:01;17.90;1.00
38938;DHT22;24727;51.974;20.868;2023-08-30T06:52:27;18.00;1.00
38938;DHT22;24727;51.974;20.868;2023-08-30T06:54:53;18.00;1.00
38938;DHT22;24727;51.974;20.868;2023-08-30T06:57:19;18.00;1.00
38938;DHT22;24727;51.974;20.868;2023-08-30T06:59:47;18.10;1.00
38938;DHT22;24727;51.974;20.868;2023-08-30T07:02:13;18.00;1.00
38938;DHT22;24727;51.974;20.868;2023-08-30T07:04:40;18.10;1.00
38938;DHT22;24727;51.974;20.868;2023-08-30T07:07:06;18.10;1.00
38938;DHT22;24727;51.974;20.868;2023-08-30T07:09:32;18.10;1.00
38938;DHT22;24727;51.974;20.868;2023-08-30T07:11:59;18.00;1.00
38938;DHT22;24727;51.974;20.868;2023-08-30T07:14:25;18.00;1.00
38938;DHT22;24727;51.974;20.868;2023-08-30T07:16:52;17.90;1.00
38938;DHT22;24727;51.974;20.868;2023-08-30T07:19:18;17.80;1.00
38938;DHT22;24727;51.974;20.868;2023-08-30T07:21:44;17.70;1.00
38938;DHT22;24727;51.974;20.868;2023-08-30T07:24:10;17.60;1.00
38938;DHT22;24727;51.974;20.868;2023-08-30T07:26:37;17.60;1.00
38938;DHT22;24727;51.974;20.868;2023-08-30T07:29:03;17.60;1.00
38938;DHT22;24727;51.974;20.868;2023-08-30T07:31:33;17.50;1.00
38938;DHT22;24727;51.974;20.868;2023-08-30T07:34:00;17.50;1.00
38938;DHT22;24727;51.974;20.868;2023-08-30T07:36:27;17.50;1.00
38938;DHT22;24727;51.974;20.868;2023-08-30T07:38:54;17.60;1.00
38938;DHT22;24727;51.974;20.868;2023-08-30T07:41:20;17.70;1.00
38938;DHT22;24727;51.974;20.868;2023-08-30T07:43:45;17.60;1.00
38938;DHT22;24727;51.974;20.868;2023-08-30T07:46:12;17.60;1.00
38938;DHT22;24727;51.974;20.868;2023-08-30T07:48:44;17.60;1.00
38938;DHT22;24727;51.974;20.868;2023-08-30T07:51:10;17.70;1.00
38938;DHT22;24727;51.974;20.868;2023-08-30T07:53:36;17.70;1.00
38938;DHT22;24727;51.974;20.868;2023-08-30T07:56:03;17.80;1.00
38938;DHT22;24727;51.974;20.868;2023-08-30T07:58:30;17.80;1.00
38938;DHT22;24727;51.974;20.868;2023-08-30T08:01:02;17.90;1.00
38938;DHT22;24727;51.974;20.868;2023-08-30T08:03:28;17.90;1.00
38938;DHT22;24727;51.974;20.868;2023-08-30T08:05:54;18.00;1.00
38938;DHT22;24727;51.974;20.868;2023-08-30T08:08:20;18.00;1.00
38938;DHT22;24727;51.974;20.868;2023-08-30T08:10:47;18.00;1.00
38938;DHT22;24727;51.974;20.868;2023-08-30T08:13:14;18.00;1.00
38938;DHT22;24727;51.974;20.868;2023-08-30T08:15:41;18.00;1.00
38938;DHT22;24727;51.974;20.868;2023-08-30T08:18:06;18.00;1.00
38938;DHT22;24727;51.974;20.868;2023-08-30T08:20:33;17.90;1.00
38938;DHT22;24727;51.974;20.868;2023-08-30T08:22:59;17.90;1.00
38938;DHT22;24727;51.974;20.868;2023-08-30T08:25:25;17.70;3.30
38938;DHT22;24727;51.974;20.868;2023-08-30T08:27:51;17.70;6.60
38938;DHT22;24727;51.974;20.868;2023-08-30T08:30:23;17.70;9.70
38938;DHT22;24727;51.974;20.868;2023-08-30T08:32:50;17.70;11.90
38938;DHT22;24727;51.974;20.868;2023-08-30T08:35:18;17.60;12.40
38938;DHT22;24727;51.974;20.868;2023-08-30T08:37:45;17.60;15.30
38938;DHT22;24727;51.974;20.868;2023-08-30T08:40:11;17.60;15.90
38938;DHT22;24727;51.974;20.868;2023-08-30T08:42:37;17.50;16.60
38938;DHT22;24727;51.974;20.868;2023-08-30T08:45:04;17.50;18.40
38938;DHT22;24727;51.974;20.868;2023-08-30T08:47:31;17.40;19.80
38938;DHT22;24727;51.974;20.868;2023-08-30T08:49:58;17.40;22.60
38938;DHT22;24727;51.974;20.868;2023-08-30T08:52:25;17.30;22.80
38938;DHT22;24727;51.974;20.868;2023-08-30T08:54:52;17.40;24.20
38938;DHT22;24727;51.974;20.868;2023-08-30T08:57:19;17.40;24.90
38938;DHT22;24727;51.974;20.868;2023-08-30T08:59:45;17.40;25.00
38938;DHT22;24727;51.974;20.868;2023-08-30T09:02:14;17.30;25.80
38938;DHT22;24727;51.974;20.868;2023-08-30T09:04:41;17.30;27.00
38938;DHT22;24727;51.974;20.868;2023-08-30T09:07:07;17.30;28.20
38938;DHT22;24727;51.974;20.868;2023-08-30T09:09:35;17.30;29.00
38938;DHT22;24727;51.974;20.868;2023-08-30T09:12:02;17.30;30.20
38938;DHT22;24727;51.974;20.868;2023-08-30T09:14:28;17.20;31.60
38938;DHT22;24727;51.974;20.868;2023-08-30T09:16:59;17.20;32.60
38938;DHT22;24727;51.974;20.868;2023-08-30T09:19:34;17.10;34.20
38938;DHT22;24727;51.974;20.868;2023-08-30T09:22:00;17.20;35.80
38938;DHT22;24727;51.974;20.868;2023-08-30T09:24:40;17.10;36.00
38938;DHT22;24727;51.974;20.868;2023-08-30T09:27:06;17.10;37.50
38938;DHT22;24727;51.974;20.868;2023-08-30T09:29:33;17.00;38.70
38938;DHT22;24727;51.974;20.868;2023-08-30T09:32:00;17.00;39.90
38938;DHT22;24727;51.974;20.868;2023-08-30T09:34:33;17.00;40.40
38938;DHT22;24727;51.974;20.868;2023-08-30T09:36:59;17.00;41.70
38938;DHT22;24727;51.974;20.868;2023-08-30T09:39:28;17.00;42.40
38938;DHT22;24727;51.974;20.868;2023-08-30T09:41:54;16.90;43.60
38938;DHT22;24727;51.974;20.868;2023-08-30T09:44:21;16.90;42.80
38938;DHT22;24727;51.974;20.868;2023-08-30T09:46:53;16.90;43.90
38938;DHT22;24727;51.974;20.868;2023-08-30T09:49:22;16.90;44.70
38938;DHT22;24727;51.974;20.868;2023-08-30T09:51:49;16.90;44.70
38938;DHT22;24727;51.974;20.868;2023-08-30T09:54:25;16.90;45.20
38938;DHT22;24727;51.974;20.868;2023-08-30T09:56:51;16.90;45.50
38938;DHT22;24727;51.974;20.868;2023-08-30T09:59:22;16.90;46.10
38938;DHT22;24727;51.974;20.868;2023-08-30T10:01:50;16.90;47.00
38938;DHT22;24727;51.974;20.868;2023-08-30T10:04:19;17.00;47.80
38938;DHT22;24727;51.974;20.868;2023-08-30T10:06:47;17.10;47.10
38938;DHT22;24727;51.974;20.868;2023-08-30T10:09:14;17.10;47.60
38938;DHT22;24727;51.974;20.868;2023-08-30T10:11:41;17.10;47.10
38938;DHT22;24727;51.974;20.868;2023-08-30T10:14:07;17.20;47.40
38938;DHT22;24727;51.974;20.868;2023-08-30T10:16:47;17.20;46.50
38938;DHT22;24727;51.974;20.868;2023-08-30T10:19:28;17.20;45.00
38938;DHT22;24727;51.974;20.868;2023-08-30T10:22:01;17.20;44.90
38938;DHT22;24727;51.974;20.868;2023-08-30T10:24:41;17.20;43.10
38938;DHT22;24727;51.974;20.868;2023-08-30T10:27:09;17.10;42.40
38938;DHT22;24727;51.974;20.868;2023-08-30T10:29:37;17.10;41.50
38938;DHT22;24727;51.974;20.868;2023-08-30T10:32:06;17.00;42.10
38938;DHT22;24727;51.974;20.868;2023-08-30T10:34:34;17.10;41.50
38938;DHT22;24727;51.974;20.868;2023-08-30T10:37:00;17.00;41.60
38938;DHT22;24727;51.974;20.868;2023-08-30T10:39:41;17.10;42.30
38938;DHT22;24727;51.974;20.868;2023-08-30T10:42:12;17.00;41.40
38938;DHT22;24727;51.974;20.868;2023-08-30T10:45:08;17.00;41.20
38938;DHT22;24727;51.974;20.868;2023-08-30T10:47:37;17.00;42.00
38938;DHT22;24727;51.974;20.868;2023-08-30T10:50:09;17.10;42.10
38938;DHT22;24727;51.974;20.868;2023-08-30T10:52:36;17.10;42.00
38938;DHT22;24727;51.974;20.868;2023-08-30T10:55:08;17.10;42.50
38938;DHT22;24727;51.974;20.868;2023-08-30T10:57:37;17.00;41.60
38938;DHT22;24727;51.974;20.868;2023-08-30T11:02:46;17.10;43.10
38938;DHT22;24727;51.974;20.868;2023-08-30T11:05:12;17.10;42.90
38938;DHT22;24727;51.974;20.868;2023-08-30T11:07:38;17.10;43.90
38938;DHT22;24727;51.974;20.868;2023-08-30T11:10:07;17.20;44.70
38938;DHT22;24727;51.974;20.868;2023-08-30T11:12:34;17.20;45.60
38938;DHT22;24727;51.974;20.868;2023-08-30T11:15:02;17.30;45.30
38938;DHT22;24727;51.974;20.868;2023-08-30T11:17:29;17.40;45.60
38938;DHT22;24727;51.974;20.868;2023-08-30T11:20:12;17.40;45.10
38938;DHT22;24727;51.974;20.868;2023-08-30T11:22:48;17.40;44.80
38938;DHT22;24727;51.974;20.868;2023-08-30T11:25:15;17.40;44.50
38938;DHT22;24727;51.974;20.868;2023-08-30T11:27:42;17.30;43.90
38938;DHT22;24727;51.974;20.868;2023-08-30T11:30:09;17.30;43.30
38938;DHT22;24727;51.974;20.868;2023-08-30T11:32:36;17.30;44.40
38938;DHT22;24727;51.974;20.868;2023-08-30T11:35:03;17.30;43.90
38938;DHT22;24727;51.974;20.868;2023-08-30T11:37:30;17.40;44.30
38938;DHT22;24727;51.974;20.868;2023-08-30T11:39:56;17.40;45.00
38938;DHT22;24727;51.974;20.868;2023-08-30T11:42:22;17.40;44.90
38938;DHT22;24727;51.974;20.868;2023-08-30T11:44:50;17.50;43.90
38938;DHT22;24727;51.974;20.868;2023-08-30T11:47:20;17.50;44.20
38938;DHT22;24727;51.974;20.868;2023-08-30T11:49:57;17.50;43.30
38938;DHT22;24727;51.974;20.868;2023-08-30T11:52:24;17.50;43.10
38938;DHT22;24727;51.974;20.868;2023-08-30T11:54:53;17.50;43.00
38938;DHT22;24727;51.974;20.868;2023-08-30T11:57:20;17.50;42.10
38938;DHT22;24727;51.974;20.868;2023-08-30T11:59:49;17.50;42.00
38938;DHT22;24727;51.974;20.868;2023-08-30T12:02:17;17.50;40.90
38938;DHT22;24727;51.974;20.868;2023-08-30T12:04:50;17.60;40.70
38938;DHT22;24727;51.974;20.868;2023-08-30T12:07:25;17.60;39.90
38938;DHT22;24727;51.974;20.868;2023-08-30T12:10:07;17.60;39.40
38938;DHT22;24727;51.974;20.868;2023-08-30T12:12:35;17.60;38.90
38938;DHT22;24727;51.974;20.868;2023-08-30T12:15:11;17.50;37.50
38938;DHT22;24727;51.974;20.868;2023-08-30T12:17:37;17.40;37.00
38938;DHT22;24727;51.974;20.868;2023-08-30T12:20:05;17.30;37.20
38938;DHT22;24727;51.974;20.868;2023-08-30T12:22:39;17.30;38.00
38938;DHT22;24727;51.974;20.868;2023-08-30T12:25:26;17.20;37.80
38938;DHT22;24727;51.974;20.868;2023-08-30T12:27:54;17.20;39.00
38938;DHT22;24727;51.974;20.868;2023-08-30T12:30:20;17.30;39.70
38938;DHT22;24727;51.974;20.868;2023-08-30T12:32:47;17.30;40.60
38938;DHT22;24727;51.974;20.868;2023-08-30T12:35:15;17.40;42.30
38938;DHT22;24727;51.974;20.868;2023-08-30T12:37:43;17.30;41.70
38938;DHT22;24727;51.974;20.868;2023-08-30T12:40:09;17.20;40.70
38938;DHT22;24727;51.974;20.868;2023-08-30T12:42:35;17.20;41.00
38938;DHT22;24727;51.974;20.868;2023-08-30T12:45:01;17.10;39.60
38938;DHT22;24727;51.974;20.868;2023-08-30T12:47:29;17.10;40.30
38938;DHT22;24727;51.974;20.868;2023-08-30T12:49:56;17.20;40.20
38938;DHT22;24727;51.974;20.868;2023-08-30T12:52:24;17.10;40.00
38938;DHT22;24727;51.974;20.868;2023-08-30T12:54:50;17.10;40.00
38938;DHT22;24727;51.974;20.868;2023-08-30T12:57:18;17.20;40.70
38938;DHT22;24727;51.974;20.868;2023-08-30T12:59:45;17.10;41.30
38938;DHT22;24727;51.974;20.868;2023-08-30T13:02:10;17.20;41.10
38938;DHT22;24727;51.974;20.868;2023-08-30T13:04:36;17.10;40.10
38938;DHT22;24727;51.974;20.868;2023-08-30T13:07:05;17.20;41.50
38938;DHT22;24727;51.974;20.868;2023-08-30T13:09:30;17.20;41.80
38938;DHT22;24727;51.974;20.868;2023-08-30T13:11:58;17.30;42.30
38938;DHT22;24727;51.974;20.868;2023-08-30T13:14:24;17.40;42.90
38938;DHT22;24727;51.974;20.868;2023-08-30T13:16:50;17.50;43.20
38938;DHT22;24727;51.974;20.868;2023-08-30T13:19:16;17.50;42.00
38938;DHT22;24727;51.974;20.868;2023-08-30T13:21:42;17.50;42.70
38938;DHT22;24727;51.974;20.868;2023-08-30T13:24:09;17.70;43.00
38938;DHT22;24727;51.974;20.868;2023-08-30T13:26:36;17.80;43.10
38938;DHT22;24727;51.974;20.868;2023-08-30T13:29:02;17.80;41.70
38938;DHT22;24727;51.974;20.868;2023-08-30T13:31:28;17.60;38.30
38938;DHT22;24727;51.974;20.868;2023-08-30T13:33:56;17.50;35.40
38938;DHT22;24727;51.974;20.868;2023-08-30T13:36:22;17.50;32.30
38938;DHT22;24727;51.974;20.868;2023-08-30T13:38:48;17.50;32.00
38938;DHT22;24727;51.974;20.868;2023-08-30T13:41:15;17.50;31.60
38938;DHT22;24727;51.974;20.868;2023-08-30T13:43:41;17.40;30.20
38938;DHT22;24727;51.974;20.868;2023-08-30T13:46:07;17.40;29.40
38938;DHT22;24727;51.974;20.868;2023-08-30T13:48:33;17.40;29.30
38938;DHT22;24727;51.974;20.868;2023-08-30T13:51:00;17.60;29.90
38938;DHT22;24727;51.974;20.868;2023-08-30T13:53:27;17.70;30.70
38938;DHT22;24727;51.974;20.868;2023-08-30T13:55:54;17.70;29.70
38938;DHT22;24727;51.974;20.868;2023-08-30T13:58:20;17.70;28.70
38938;DHT22;24727;51.974;20.868;2023-08-30T14:00:46;17.60;25.30
38938;DHT22;24727;51.974;20.868;2023-08-30T14:03:13;17.60;23.80
38938;DHT22;24727;51.974;20.868;2023-08-30T14:05:41;17.60;23.70
38938;DHT22;24727;51.974;20.868;2023-08-30T14:08:07;17.60;23.10
38938;DHT22;24727;51.974;20.868;2023-08-30T14:10:34;17.60;23.00
38938;DHT22;24727;51.974;20.868;2023-08-30T14:13:00;17.60;23.00
38938;DHT22;24727;51.974;20.868;2023-08-30T14:15:27;17.60;22.80
38938;DHT22;24727;51.974;20.868;2023-08-30T14:17:54;17.60;24.10
38938;DHT22;24727;51.974;20.868;2023-08-30T14:20:22;17.70;23.00
38938;DHT22;24727;51.974;20.868;2023-08-30T14:22:48;17.60;19.20
38938;DHT22;24727;51.974;20.868;2023-08-30T14:25:14;17.50;17.20
38938;DHT22;24727;51.974;20.868;2023-08-30T14:27:40;17.50;16.20
38938;DHT22;24727;51.974;20.868;2023-08-30T14:30:07;17.50;15.30
38938;DHT22;24727;51.974;20.868;2023-08-30T14:32:33;17.50;15.10
38938;DHT22;24727;51.974;20.868;2023-08-30T14:35:00;17.50;14.10
38938;DHT22;24727;51.974;20.868;2023-08-30T14:37:29;17.60;15.40
38938;DHT22;24727;51.974;20.868;2023-08-30T14:39:55;17.60;13.20
38938;DHT22;24727;51.974;20.868;2023-08-30T14:42:22;17.60;11.90
38938;DHT22;24727;51.974;20.868;2023-08-30T14:44:51;17.60;12.10
38938;DHT22;24727;51.974;20.868;2023-08-30T14:47:18;17.70;12.00
38938;DHT22;24727;51.974;20.868;2023-08-30T14:49:45;17.70;12.80
38938;DHT22;24727;51.974;20.868;2023-08-30T14:52:13;17.80;10.00
38938;DHT22;24727;51.974;20.868;2023-08-30T14:54:40;17.90;12.00
38938;DHT22;24727;51.974;20.868;2023-08-30T14:57:07;18.10;7.60
38938;DHT22;24727;51.974;20.868;2023-08-30T14:59:34;18.20;1.00
38938;DHT22;24727;51.974;20.868;2023-08-30T15:02:03;18.40;1.00
38938;DHT22;24727;51.974;20.868;2023-08-30T15:04:29;18.50;1.00
38938;DHT22;24727;51.974;20.868;2023-08-30T15:06:56;18.70;1.00
38938;DHT22;24727;51.974;20.868;2023-08-30T15:09:23;18.80;1.00
38938;DHT22;24727;51.974;20.868;2023-08-30T15:11:51;18.90;1.00
38938;DHT22;24727;51.974;20.868;2023-08-30T15:14:18;19.00;1.00
38938;DHT22;24727;51.974;20.868;2023-08-30T15:16:44;19.00;1.00
38938;DHT22;24727;51.974;20.868;2023-08-30T15:19:11;19.10;1.00
38938;DHT22;24727;51.974;20.868;2023-08-30T15:21:45;19.20;1.00
38938;DHT22;24727;51.974;20.868;2023-08-30T15:24:11;19.20;1.00
38938;DHT22;24727;51.974;20.868;2023-08-30T15:26:39;19.20;1.00
38938;DHT22;24727;51.974;20.868;2023-08-30T15:29:06;18.90;1.00
38938;DHT22;24727;51.974;20.868;2023-08-30T15:31:33;18.50;1.00